SCDA 220500Z 25005KT 9999 OVC030 16/10 Q1017